Latest Weather Observations for Murrurundi Gap

IDN60801

Issued at 2:43 pm EDT Monday 8 March 2021 (issued every 10 minutes, with the page automatically refreshed every 10 minutes)

About weather observations | Map of weather stations | Latest weather observations for NSW | Other Formats
Station Details ID: 061392 Name: MURRURUNDI GAP AWS Lat: -31.74 Lon: 150.79 Height: 729.4 m
Data from the previous 72 hours. | See also: Recent months at Murrurundi Gap
Date/Time
EDT
Temp
°C
App
Temp
°C
Dew
Point
°C
Rel
Hum
%
Delta-T
°C
Wind Press
QNH
hPa
Press
MSL
hPa
Rain since
9am
mm
Dir  Spd
km/h
Gust
km/h
Spd
kts
Gust
kts
08/02:30pm 21.8 19.8 17.4 76 2.8 NNW 24 32 13 17 1013.1 1009.8 0.0
08/02:00pm 22.3 20.3 17.4 74 3.1 NNW 24 33 13 18 1013.4 1010.1 0.0
08/01:30pm 21.4 20.1 17.2 77 2.7 NNW 20 30 11 16 1014.3 1011.0 0.0
08/01:00pm 21.5 19.4 17.1 76 2.8 NNW 24 33 13 18 1014.7 1011.4 0.0
08/12:30pm 21.1 19.3 16.9 77 2.6 NNW 22 32 12 17 1015.5 1012.3 0.0
08/12:00pm 21.0 19.1 16.8 77 2.6 NNW 22 35 12 19 1016.1 1012.8 0.0
08/11:30am 20.6 18.6 16.4 77 2.6 NNW 22 30 12 16 1016.5 1013.3 0.0
08/11:00am 20.5 18.0 16.1 76 2.7 NNW 24 37 13 20 1016.5 1013.3 0.0
08/10:30am 20.5 18.0 16.1 76 2.7 NNW 24 37 13 20 1016.5 1013.3 0.0
08/10:00am 20.2 17.2 15.8 76 2.7 NNW 26 39 14 21 1016.6 1013.4 0.0
08/09:30am 20.1 17.0 15.5 75 2.8 NNW 26 35 14 19 1016.6 1013.4 0.0
08/09:00am 20.0 16.8 15.4 75 2.8 NW 26 35 14 19 1016.4 1013.1 0.0
08/08:30am 19.9 16.7 15.3 75 2.8 NW 26 35 14 19 1016.2 1012.9 0.0
08/08:00am 19.9 15.9 15.3 75 2.8 NNW 30 44 16 24 1015.9 1012.6 0.0
08/07:30am 19.7 16.8 15.1 75 2.8 NW 24 35 13 19 1015.6 1012.4 0.0
08/07:00am 19.3 16.3 14.8 75 2.7 NW 24 33 13 18 1015.5 1012.3 0.0
08/06:30am 19.4 16.3 14.6 74 2.9 NW 24 32 13 17 1015.4 1012.2 0.0
08/06:00am 19.1 16.3 14.4 74 2.8 NW 22 32 12 17 1015.0 1011.7 0.0
08/05:30am 19.4 16.6 14.2 72 3.1 NW 22 32 12 17 1015.0 1011.7 0.0
08/05:00am 19.6 16.3 14.0 70 3.3 NW 24 30 13 16 1014.6 1011.3 0.0
08/04:30am 19.6 16.5 13.5 68 3.6 NW 22 28 12 15 1014.4 1011.1 0.0
08/04:00am 20.2 18.0 13.2 64 4.1 NNW 17 30 9 16 1013.9 1010.6 0.0
08/03:30am 20.7 16.9 12.4 59 4.8 N 24 35 13 19 1013.7 1010.4 0.0
08/03:00am 21.4 19.1 11.7 54 5.6 NE 15 22 8 12 1013.5 1010.2 0.0
08/02:30am 21.1 19.3 12.0 56 5.3 NE 13 26 7 14 1013.8 1010.5 0.0
08/02:00am 18.5 17.3 14.0 75 2.7 ESE 13 22 7 12 1014.0 1010.8 0.0
08/01:30am 17.7 16.6 14.2 80 2.1 SE 13 15 7 8 1014.3 1011.0 0.0
08/01:00am 17.8 16.7 14.3 80 2.1 SE 13 15 7 8 1014.5 1011.2 0.0
08/12:30am 17.4 15.8 13.9 80 2.1 SE 15 17 8 9 1014.6 1011.3 0.0
08/12:00am 17.7 15.7 13.8 78 2.3 SE 17 19 9 10 1014.8 1011.5 0.0
 
Date/Time
EDT
Temp
°C
App
Temp
°C
Dew
Point
°C
Rel
Hum
%
Delta-T
°C
Wind Press
QNH
hPa
Press
MSL
hPa
Rain since
9am
mm
Dir  Spd
km/h
Gust
km/h
Spd
kts
Gust
kts
07/11:30pm 17.6 15.5 13.7 78 2.3 ESE 17 19 9 10 1015.0 1011.7 0.0
07/11:00pm 18.3 16.6 13.6 74 2.8 ESE 15 17 8 9 1015.1 1011.8 0.0
07/10:30pm 18.5 16.8 13.6 73 2.9 ESE 15 17 8 9 1015.2 1012.0 0.0
07/10:00pm 19.9 18.3 13.8 68 3.6 SE 15 19 8 10 1015.0 1011.7 0.0
07/09:30pm 19.7 18.1 12.9 65 4.0 ESE 13 15 7 8 1014.7 1011.4 0.0
07/09:00pm 20.7 19.6 13.2 62 4.4 ESE 11 15 6 8 1014.4 1011.1 0.0
07/08:30pm 20.6 18.9 12.6 60 4.7 ESE 13 17 7 9 1014.0 1010.8 0.0
07/08:00pm 21.9 20.5 12.2 54 5.7 ESE 11 17 6 9 1013.5 1010.2 0.0
07/07:30pm 23.4 22.1 11.1 46 7.1 NNE 9 13 5 7 1013.3 1010.0 0.0
07/07:00pm 24.2 21.6 10.8 43 7.7 N 15 19 8 10 1013.0 1009.7 0.0
07/06:30pm 25.3 23.3 8.7 35 9.3 N 9 17 5 9 1012.9 1009.6 0.0
07/06:00pm 25.0 22.6 8.5 35 9.2 NNW 11 13 6 7 1012.7 1009.5 0.0
07/05:30pm 25.9 23.9 8.8 34 9.6 N 9 15 5 8 1012.6 1009.3 0.0
07/05:00pm 25.8 23.8 8.8 34 9.5 WNW 9 19 5 10 1012.7 1009.5 0.0
07/04:30pm 27.0 24.1 9.8 34 9.9 W 15 20 8 11 1012.7 1009.5 0.0
07/04:00pm 27.0 25.9 10.7 36 9.5 SE 7 15 4 8 1013.1 1009.8 0.0
07/03:30pm 24.2 22.6 11.5 45 7.4 WNW 11 19 6 10 1013.4 1010.1 0.0
07/03:00pm 26.0 24.1 11.7 41 8.4 NW 13 20 7 11 1013.7 1010.4 0.0
07/02:30pm 24.6 23.3 12.5 46 7.2 N 11 20 6 11 1014.0 1010.8 0.0
07/02:00pm 23.0 21.3 12.6 52 6.1 NW 13 20 7 11 1014.5 1011.2 0.0
07/01:30pm 23.4 21.4 13.8 54 5.8 NNW 17 24 9 13 1014.9 1011.6 0.0
07/01:00pm 22.9 20.2 13.4 55 5.7 NW 20 32 11 17 1015.3 1012.1 0.0
07/12:30pm 23.3 20.6 14.6 58 5.3 NW 22 32 12 17 1015.8 1012.5 0.0
07/12:00pm 21.4 18.8 13.3 60 4.8 NNW 19 28 10 15 1016.2 1012.9 0.0
07/11:30am 20.4 18.5 13.1 63 4.3 N 15 22 8 12 1016.5 1013.3 0.0
07/11:00am 19.0 17.9 13.0 68 3.5 N 11 19 6 10 1016.8 1013.6 0.0
07/10:30am 17.6 18.7 13.5 77 2.4 CALM 0 0 0 0 1017.0 1013.8 0.0
07/10:00am 16.4 15.9 12.6 78 2.2 ESE 7 9 4 5 1016.9 1013.7 0.0
07/09:30am 15.8 14.8 12.4 80 1.9 ESE 9 13 5 7 1016.7 1013.5 0.0
07/09:00am 15.4 13.2 12.2 81 1.8 ESE 15 17 8 9 1016.5 1013.3 0.0
07/08:30am 15.5 13.3 13.3 87 1.3 ESE 17 20 9 11 1016.2 1012.9 0.0
07/08:00am 13.7 11.5 13.2 97 0.3 ESE 17 20 9 11 1015.9 1012.6 0.0
07/07:30am 12.1 9.0 12.1 100 0.0 SE 20 22 11 12 1015.6 1012.4 0.0
07/07:00am 11.3 7.9 11.3 100 0.0 SE 20 24 11 13 1015.4 1012.2 0.0
07/06:30am 11.3 7.9 11.3 100 0.0 SE 20 22 11 12 1015.1 1011.8 0.0
07/06:00am 11.3 7.9 11.1 99 0.1 SE 20 22 11 12 1014.8 1011.5 0.0
07/05:38am 11.1 7.6 10.9 99 0.1 SE 20 24 11 13 1014.7 1011.4 0.0
07/05:30am 11.3 7.9 11.1 99 0.1 SE 20 24 11 13 1014.6 1011.3 0.0
07/05:09am 11.6 7.9 11.4 99 0.1 SE 22 26 12 14 1014.6 1011.3 0.0
07/05:00am 11.5 7.7 11.3 99 0.1 SE 22 26 12 14 1014.6 1011.3 0.0
07/04:50am 11.2 7.4 11.0 99 0.1 SE 22 26 12 14 1014.5 1011.2 0.0
07/04:37am 11.4 7.2 11.2 99 0.1 SE 24 30 13 16 1014.5 1011.2 0.0
07/04:30am 11.6 7.5 11.4 99 0.1 SE 24 30 13 16 1014.5 1011.2 0.0
07/04:11am 11.2 7.4 11.0 99 0.1 SE 22 28 12 15 1014.4 1011.1 0.0
07/04:00am 11.7 7.6 11.5 99 0.1 SE 24 28 13 15 1014.3 1011.0 0.0
07/03:30am 12.1 8.1 11.9 99 0.1 SE 24 30 13 16 1014.4 1011.1 0.0
07/03:00am 11.7 7.6 11.4 98 0.2 ESE 24 26 13 14 1014.5 1011.2 0.0
07/02:30am 11.8 8.1 11.6 99 0.1 SE 22 28 12 15 1014.6 1011.3 0.0
07/02:00am 11.8 7.7 11.6 99 0.1 ESE 24 26 13 14 1014.7 1011.4 0.0
07/01:30am 12.2 7.6 11.1 93 0.6 SE 26 32 14 17 1014.6 1011.3 0.0
07/01:00am 12.8 8.4 11.7 93 0.6 SE 26 32 14 17 1014.7 1011.4 0.0
07/12:30am 12.9 8.5 11.6 92 0.7 SE 26 30 14 16 1014.9 1011.6 0.0
07/12:00am 13.1 8.7 11.7 91 0.8 SE 26 32 14 17 1014.9 1011.6 0.0
 
Date/Time
EDT
Temp
°C
App
Temp
°C
Dew
Point
°C
Rel
Hum
%
Delta-T
°C
Wind Press
QNH
hPa
Press
MSL
hPa
Rain since
9am
mm
Dir  Spd
km/h
Gust
km/h
Spd
kts
Gust
kts
06/11:30pm 13.4 8.2 11.6 89 1.0 SE 30 35 16 19 1014.8 1011.5 0.0
06/11:00pm 13.9 8.4 11.8 87 1.2 SE 32 39 17 21 1014.5 1011.2 0.0
06/10:30pm 14.5 8.9 12.0 85 1.4 SE 33 41 18 22 1014.5 1011.2 0.0
06/10:00pm 15.1 9.1 12.1 82 1.7 SE 35 41 19 22 1014.4 1011.1 0.0
06/09:30pm 15.1 10.0 11.9 81 1.8 SE 30 37 16 20 1014.1 1010.9 0.0
06/09:00pm 15.6 10.3 12.4 81 1.8 SSE 32 39 17 21 1013.7 1010.4 0.0
06/08:30pm 15.9 10.5 12.3 79 2.0 SE 32 37 17 20 1013.3 1010.0 0.0
06/08:00pm 16.5 11.5 12.3 76 2.4 SE 30 35 16 19 1013.0 1009.7 0.0
06/07:30pm 17.3 12.7 12.2 72 2.9 SSE 28 39 15 21 1012.6 1009.3 0.0
06/07:00pm 18.2 14.3 12.2 68 3.4 SE 24 33 13 18 1012.3 1009.0 0.0
06/06:30pm 19.0 15.2 12.3 65 3.9 SSE 24 35 13 19 1012.0 1008.7 0.0
06/06:00pm 19.9 16.4 12.2 61 4.5 SSE 22 35 12 19 1011.9 1008.6 0.0
06/05:30pm 20.4 16.2 12.4 60 4.7 SSE 26 33 14 18 1011.6 1008.3 0.0
06/05:00pm 21.3 17.9 12.4 57 5.2 SSE 22 32 12 17 1011.5 1008.1 0.0
06/04:30pm 21.6 17.7 12.2 55 5.5 SSE 24 37 13 20 1011.2 1007.9 0.0
06/04:00pm 22.7 19.5 13.2 55 5.7 SSE 22 33 12 18 1011.4 1008.0 0.0
06/03:30pm 22.0 17.5 12.5 54 5.6 SSE 28 41 15 22 1011.4 1008.0 0.0
06/03:00pm 22.3 18.1 12.5 53 5.8 SSE 26 41 14 22 1011.4 1008.0 0.0
06/02:30pm 22.9 20.0 12.8 53 6.0 SE 20 32 11 17 1011.5 1008.1 0.0
06/02:00pm 23.5 20.9 13.7 54 5.9 SE 20 30 11 16 1011.7 1008.4 0.0
06/01:30pm 21.9 18.6 12.7 56 5.4 SE 22 30 12 16 1012.1 1008.8 0.0
06/01:00pm 20.5 17.3 12.0 58 4.9 SE 20 32 11 17 1012.4 1009.1 0.0
06/12:30pm 22.3 19.4 13.9 59 5.1 ESE 22 32 12 17 1012.6 1009.3 0.0
06/12:00pm 20.5 17.2 12.7 61 4.6 SE 22 33 12 18 1012.9 1009.6 0.0
06/11:30am 21.3 18.0 14.0 63 4.4 ESE 24 35 13 19 1013.0 1009.7 0.0
06/11:00am 19.6 15.7 13.3 67 3.7 SE 26 35 14 19 1013.0 1009.7 0.0
06/10:30am 18.0 13.8 13.5 75 2.6 ESE 28 35 15 19 1013.1 1009.8 0.0
06/10:00am 17.8 13.5 13.1 74 2.7 ESE 28 35 15 19 1013.0 1009.7 0.0
06/09:40am 16.0 12.1 13.3 84 1.6 ESE 26 35 14 19 1012.9 1009.6 0.0
06/09:30am 15.8 12.0 13.5 86 1.3 ESE 26 33 14 18 1012.6 1009.3 0.0
06/09:00am 14.4 9.8 13.6 95 0.5 ESE 30 35 16 19 1012.4 1009.1 0.0
06/08:30am 14.1 10.0 13.9 99 0.1 SE 28 35 15 19 1012.0 1008.7 0.0
06/08:02am 13.5 9.7 13.5 100 0.0 SE 26 32 14 17 1011.8 1008.5 0.0
06/08:00am 13.5 9.7 13.5 100 0.0 SE 26 32 14 17 1011.8 1008.5 0.0
06/07:30am 12.9 8.9 12.9 100 0.0 SE 26 32 14 17 1011.6 1008.3 0.0
06/07:00am 12.4 8.6 12.4 100 0.0 SE 24 30 13 16 1011.1 1007.8 0.0
06/06:30am 12.4 8.2 12.4 100 0.0 SE 26 30 14 16 1010.9 1007.6 0.0
06/06:07am 12.5 8.7 12.5 100 0.0 SE 24 30 13 16 1010.8 1007.5 0.0
06/06:00am 12.7 8.6 12.7 100 0.0 SE 26 30 14 16 1010.8 1007.5 0.0
06/05:54am 12.7 8.2 12.7 100 0.0 SE 28 32 15 17 1010.7 1007.4 0.0
06/05:53am 12.6 8.1 12.6 100 0.0 SE 28 32 15 17 1010.7 1007.4 0.0
06/05:30am 12.4 8.6 12.4 100 0.0 SE 24 30 13 16 1010.7 1007.4 0.0
06/05:27am 12.5 8.7 12.5 100 0.0 SE 24 32 13 17 1010.6 1007.3 0.0
06/05:00am 12.4 8.2 12.4 100 0.0 SE 26 32 14 17 1010.4 1007.1 0.0
06/04:55am 12.5 8.3 12.5 100 0.0 SE 26 30 14 16 1010.4 1007.1 0.0
06/04:30am 12.6 8.5 12.6 100 0.0 SE 26 32 14 17 1010.3 1006.9 0.0
06/04:01am 12.6 7.3 12.4 99 0.1 SE 32 37 17 20 1010.0 1006.6 0.0
06/04:00am 12.6 7.3 12.4 99 0.1 SE 32 37 17 20 1010.0 1006.6 0.0
06/03:30am 12.8 7.9 12.6 99 0.1 SE 30 37 16 20 1009.9 1006.5 0.0
06/03:00am 13.2 8.1 13.0 99 0.1 SE 32 37 17 20 1009.9 1006.5 0.0
06/02:30am 13.3 7.6 13.0 98 0.2 SE 35 41 19 22 1010.0 1006.6 0.0
06/02:08am 13.7 7.3 13.1 96 0.3 SE 39 46 21 25 1009.9 1006.5 0.0
06/02:00am 13.8 7.3 13.0 95 0.5 SE 39 46 21 25 1010.0 1006.6 0.0
06/01:30am 14.1 8.5 13.3 95 0.5 SE 35 44 19 24 1010.2 1006.8 0.0
06/01:00am 13.9 8.7 13.3 96 0.3 SE 33 39 18 21 1010.3 1006.9 0.0
06/12:30am 13.9 8.2 13.1 95 0.5 SE 35 43 19 23 1010.4 1007.1 0.0
06/12:00am 14.0 8.7 13.2 95 0.5 SE 33 43 18 23 1010.4 1007.1 0.0
 
Date/Time
EDT
Temp
°C
App
Temp
°C
Dew
Point
°C
Rel
Hum
%
Delta-T
°C
Wind Press
QNH
hPa
Press
MSL
hPa
Rain since
9am
mm
Dir  Spd
km/h
Gust
km/h
Spd
kts
Gust
kts
05/11:30pm 14.2 8.6 13.4 95 0.5 SSE 35 46 19 25 1010.3 1006.9 0.0
05/11:25pm 14.2 8.6 13.4 95 0.5 SSE 35 46 19 25 1010.3 1006.9 0.0
05/11:00pm 14.5 9.5 13.5 94 0.6 SE 32 41 17 22 1010.3 1006.9 0.0
05/10:30pm 15.4 10.5 13.6 89 1.0 SSE 32 37 17 20 1010.1 1006.7 0.0
05/10:00pm 15.7 10.7 13.4 86 1.3 SSE 32 37 17 20 1010.1 1006.7 0.0
05/09:30pm 16.2 11.7 13.7 85 1.5 S 30 39 16 21 1009.9 1006.5 0.0
05/09:00pm 17.5 14.4 13.4 77 2.4 SE 22 33 12 18 1009.6 1006.3 0.0
05/08:30pm 18.3 15.6 13.4 73 2.9 SSE 20 28 11 15 1009.2 1005.9 0.0
05/08:00pm 19.4 16.2 11.9 62 4.3 SSE 20 32 11 17 1008.8 1005.4 0.0
05/07:30pm 20.5 16.3 8.2 45 6.6 SSE 20 26 11 14 1008.5 1005.1 0.0
05/07:00pm 21.4 17.4 8.3 43 7.1 SSE 19 24 10 13 1008.2 1004.9 0.0
05/06:30pm 22.5 18.8 7.9 39 7.9 SSE 17 20 9 11 1008.0 1004.7 0.0
05/06:00pm 23.7 20.0 7.8 36 8.7 SSE 17 26 9 14 1007.9 1004.6 0.0
05/05:30pm 24.6 21.1 7.3 33 9.4 SSE 15 20 8 11 1007.8 1004.4 0.0
05/05:00pm 25.8 23.0 6.9 30 10.3 SE 11 20 6 11 1007.6 1004.2 0.0
05/04:30pm 26.4 22.8 6.9 29 10.6 S 15 24 8 13 1007.7 1004.3 0.0
05/04:00pm 27.0 22.8 5.9 26 11.4 WSW 17 26 9 14 1007.9 1004.6 0.0
05/03:30pm 25.9 21.8 6.0 28 10.6 SSE 17 26 9 14 1008.2 1004.9 0.0
05/03:00pm 26.3 22.1 5.8 27 11.0 WSW 17 26 9 14 1008.6 1005.2 0.0

Other formats

Comma delimited format used in spreadsheet applications
http://www.bom.gov.au/fwo/IDN60801/IDN60801.95747.axf

JavaScript Object Notation format (JSON) in row-major order
http://www.bom.gov.au/fwo/IDN60801/IDN60801.95747.json

Data quality

Most of these data are generated automatically and are frequently updated. Quality checks on data are not normally performed. It is possible for incorrect values to appear. Refer to information at About Latest Weather Observations and please check the disclaimer before using these data.